Time;durP1;ratioP1;P1;durP2;ratioP2;P2;SDS_P1;SDS_P2;PMS_P1;PMS_P2;Temp;Humidity;BMP_temperature;BMP_pressure;BME280_temperature;BME280_humidity;BME280_pressure;Samples;Min_cycle;Max_cycle;Signal;HPM_P1;HPM_P2
2020/12/28 13:45:58;;;;;;;1999.90;999.90;;;2.10;99.90;;;;;;5095409;27;20655;-48
2020/12/28 13:48:24;;;;;;;1999.90;999.90;;;2.00;99.90;;;;;;5083027;28;20508;-49
2020/12/28 13:50:49;;;;;;;1999.90;999.90;;;2.00;99.90;;;;;;5084876;28;20647;-49
2020/12/28 13:53:15;;;;;;;1999.90;999.90;;;2.10;99.90;;;;;;5079517;28;20191;-49
2020/12/28 13:55:42;;;;;;;1999.90;999.90;;;2.10;99.90;;;;;;5079653;28;20292;-49
2020/12/28 13:58:07;;;;;;;1999.90;999.90;;;2.00;99.90;;;;;;5083535;28;20197;-48
2020/12/28 14:00:33;;;;;;;1999.90;999.90;;;2.10;99.90;;;;;;5081949;28;20467;-49
2020/12/28 14:02:58;;;;;;;1999.90;999.90;;;2.10;99.90;;;;;;5079663;28;20185;-49
2020/12/28 14:05:24;;;;;;;1999.90;999.90;;;2.00;99.90;;;;;;5074952;28;20729;-49
2020/12/28 14:07:49;;;;;;;1999.90;999.90;;;2.00;99.90;;;;;;5076430;28;20722;-48
2020/12/28 14:10:15;;;;;;;1999.90;999.90;;;1.90;99.90;;;;;;5079091;28;20209;-49
2020/12/28 14:12:41;;;;;;;1999.90;999.90;;;1.90;99.90;;;;;;5075443;28;20705;-49
2020/12/28 14:15:06;;;;;;;1999.90;999.90;;;1.90;99.90;;;;;;5080381;28;20188;-49
2020/12/28 14:17:32;;;;;;;1999.90;999.90;;;2.00;99.90;;;;;;5081685;28;20317;-49
2020/12/28 14:19:57;;;;;;;1999.90;999.90;;;1.90;99.90;;;;;;5082399;28;20192;-49
2020/12/28 14:22:23;;;;;;;1999.90;999.90;;;2.00;99.90;;;;;;5083190;28;20665;-49
2020/12/28 14:24:48;;;;;;;1999.90;999.90;;;2.00;99.90;;;;;;5081581;28;20228;-49
2020/12/28 14:27:14;;;;;;;1999.90;999.90;;;2.00;99.90;;;;;;5082750;28;20181;-48
2020/12/28 14:29:39;;;;;;;1999.90;999.90;;;1.90;99.90;;;;;;5083324;28;20707;-48
2020/12/28 14:32:05;;;;;;;1999.90;999.90;;;1.90;99.90;;;;;;5078882;28;20234;-49
2020/12/28 14:34:31;;;;;;;1999.90;999.90;;;1.80;99.90;;;;;;5072959;28;20332;-47
2020/12/28 14:36:56;;;;;;;1999.90;999.90;;;1.90;99.90;;;;;;5071691;28;20200;-48
2020/12/28 14:39:22;;;;;;;1999.90;999.90;;;1.90;99.90;;;;;;5074851;28;20229;-49
2020/12/28 14:41:48;;;;;;;1999.90;999.90;;;1.80;99.90;;;;;;5076103;28;20625;-49
2020/12/28 14:44:13;;;;;;;1999.90;999.90;;;1.80;99.90;;;;;;5074138;28;20263;-47
2020/12/28 14:46:39;;;;;;;1999.90;999.90;;;1.80;99.90;;;;;;5075142;28;20185;-49
2020/12/28 14:49:05;;;;;;;1999.90;999.90;;;1.80;99.90;;;;;;5075117;28;20262;-49
2020/12/28 14:51:30;;;;;;;1999.90;999.90;;;1.80;99.90;;;;;;5073936;28;20866;-48
2020/12/28 14:53:56;;;;;;;1999.90;999.90;;;1.80;99.90;;;;;;5077841;28;20193;-49
2020/12/28 14:56:22;;;;;;;1999.90;999.90;;;1.70;99.90;;;;;;5065874;28;20639;-49
2020/12/28 14:58:48;;;;;;;1999.90;999.90;;;1.80;99.90;;;;;;5064226;28;20217;-49
2020/12/28 15:01:18;;;;;;;1999.90;999.90;;;1.70;99.90;;;;;;5065661;28;20440;-48
2020/12/28 15:03:44;;;;;;;1999.90;999.90;;;1.80;99.90;;;;;;5068588;28;20428;-49
2020/12/28 15:06:10;;;;;;;1999.90;999.90;;;1.70;99.90;;;;;;5070615;28;20424;-50
2020/12/28 15:08:35;;;;;;;1999.90;999.90;;;1.70;99.90;;;;;;5062388;28;20202;-49
2020/12/28 15:11:01;;;;;;;1999.90;999.90;;;1.70;99.90;;;;;;5065990;28;20186;-49
2020/12/28 15:13:27;;;;;;;1999.90;999.90;;;1.60;99.90;;;;;;5057284;28;20196;-50
2020/12/28 15:15:52;;;;;;;1999.90;999.90;;;1.60;99.90;;;;;;5061969;28;20194;-49
2020/12/28 15:18:18;;;;;;;1999.90;999.90;;;1.60;99.90;;;;;;5064120;28;20209;-49
2020/12/28 15:20:43;;;;;;;1999.90;999.90;;;1.60;99.90;;;;;;5068386;28;20221;-48
2020/12/28 15:23:09;;;;;;;1999.90;999.90;;;1.60;99.90;;;;;;5061035;28;20186;-51
2020/12/28 15:25:35;;;;;;;1999.90;999.90;;;1.60;99.90;;;;;;5051142;28;20253;-47
2020/12/28 15:28:00;;;;;;;1999.90;999.90;;;1.70;99.90;;;;;;5061110;28;20212;-48
2020/12/28 15:30:26;;;;;;;1999.90;999.90;;;1.60;99.90;;;;;;5062350;28;20232;-47
2020/12/28 15:32:52;;;;;;;1999.90;999.90;;;1.60;99.90;;;;;;5059435;28;20546;-49
2020/12/28 15:35:17;;;;;;;1999.90;999.90;;;1.60;99.90;;;;;;5063014;28;20852;-49
2020/12/28 15:37:44;;;;;;;1999.90;999.90;;;1.50;99.90;;;;;;5056985;28;20229;-49
2020/12/28 15:40:10;;;;;;;1999.90;999.90;;;1.40;99.90;;;;;;5063676;28;20542;-49
2020/12/28 15:42:36;;;;;;;1999.90;999.90;;;1.40;99.90;;;;;;5060028;28;20443;-47
2020/12/28 15:45:01;;;;;;;1999.90;999.90;;;1.40;99.90;;;;;;5061789;28;20300;-50
2020/12/28 15:47:27;;;;;;;1999.90;999.90;;;1.40;99.90;;;;;;5056028;28;20815;-48
2020/12/28 15:49:53;;;;;;;1999.90;999.90;;;1.40;99.90;;;;;;5057112;28;20682;-49
2020/12/28 15:52:19;;;;;;;1999.90;999.90;;;1.40;99.90;;;;;;5056805;28;20257;-48
2020/12/28 15:54:44;;;;;;;1999.90;999.90;;;1.40;99.90;;;;;;5059871;28;21129;-47
2020/12/28 15:57:10;;;;;;;1999.90;999.90;;;1.40;99.90;;;;;;5058596;28;20199;-50
2020/12/28 15:59:36;;;;;;;1999.90;999.90;;;1.40;99.90;;;;;;5057190;28;20295;-46
2020/12/28 16:02:03;;;;;;;1999.90;999.90;;;1.40;99.90;;;;;;5057733;28;20200;-47
2020/12/28 16:04:30;;;;;;;1999.90;999.90;;;1.40;99.90;;;;;;5056324;28;20268;-47
2020/12/28 16:06:55;;;;;;;1999.90;999.90;;;1.50;99.90;;;;;;5053408;28;20502;-48
2020/12/28 16:09:21;;;;;;;1999.90;999.90;;;1.50;99.90;;;;;;5060464;28;20456;-52
2020/12/28 16:11:47;;;;;;;1999.90;999.90;;;1.50;99.90;;;;;;5062764;28;20488;-49
2020/12/28 16:14:13;;;;;;;1999.90;999.90;;;1.50;99.90;;;;;;5064024;28;20214;-47
2020/12/28 16:16:39;;;;;;;1999.90;999.90;;;1.50;99.90;;;;;;5058760;28;20724;-46
2020/12/28 16:19:05;;;;;;;1999.90;999.90;;;1.50;99.90;;;;;;5060952;28;20573;-50
2020/12/28 16:21:31;;;;;;;1999.90;999.90;;;1.40;99.90;;;;;;5069062;28;20499;-47
2020/12/28 16:23:56;;;;;;;1999.90;999.90;;;1.50;99.90;;;;;;5057950;28;20288;-49
2020/12/28 16:26:22;;;;;;;1999.90;999.90;;;1.50;99.90;;;;;;5062176;28;20201;-49
2020/12/28 16:28:48;;;;;;;1999.90;999.90;;;1.60;99.90;;;;;;5068430;28;20467;-48
2020/12/28 16:31:14;;;;;;;1999.90;999.90;;;1.60;99.90;;;;;;5059631;28;20842;-47
2020/12/28 16:33:40;;;;;;;1999.90;999.90;;;1.70;99.90;;;;;;5056176;28;20247;-50
2020/12/28 16:36:13;;;;;;;1999.90;999.90;;;1.60;99.90;;;;;;5059420;28;20186;-48
2020/12/28 16:38:43;;;;;;;1999.90;999.90;;;1.70;99.90;;;;;;5066023;28;20255;-50
2020/12/28 16:41:09;;;;;;;1999.90;999.90;;;1.60;99.90;;;;;;5057035;28;20443;-48
2020/12/28 16:43:35;;;;;;;1999.90;999.90;;;1.70;99.90;;;;;;5055695;28;20455;-50
2020/12/28 16:46:00;;;;;;;1999.90;999.90;;;1.60;99.90;;;;;;5058251;28;21137;-50
2020/12/28 16:48:26;;;;;;;1999.90;999.90;;;1.60;99.90;;;;;;5060731;28;20233;-47
2020/12/28 16:50:52;;;;;;;1999.90;999.90;;;1.70;99.90;;;;;;5053794;28;20195;-49
2020/12/28 16:53:17;;;;;;;1999.90;999.90;;;1.60;99.90;;;;;;5056545;28;20210;-47
2020/12/28 16:55:43;;;;;;;1999.90;999.90;;;1.70;99.90;;;;;;5056015;28;20468;-50
2020/12/28 16:58:09;;;;;;;1999.90;999.90;;;1.70;99.90;;;;;;5055506;28;20217;-51
2020/12/28 17:00:34;;;;;;;1999.90;999.90;;;1.70;99.90;;;;;;5059121;28;21931;-48
2020/12/28 17:03:00;;;;;;;1999.90;999.90;;;1.60;99.90;;;;;;5058793;28;20189;-48
2020/12/28 17:05:25;;;;;;;1999.90;999.90;;;1.60;99.90;;;;;;5058295;28;20284;-49
2020/12/28 17:07:51;;;;;;;1999.90;999.90;;;1.60;99.90;;;;;;5058120;28;20209;-50
2020/12/28 17:10:19;;;;;;;1999.90;999.90;;;1.60;99.90;;;;;;5061309;28;20186;-49
2020/12/28 17:12:47;;;;;;;1999.90;999.90;;;1.50;99.90;;;;;;5066906;28;20192;-47
2020/12/28 17:15:13;;;;;;;1999.90;999.90;;;1.40;99.90;;;;;;5058290;28;21220;-47
2020/12/28 17:17:39;;;;;;;1999.90;999.90;;;1.30;99.90;;;;;;5057382;28;20535;-49
2020/12/28 17:20:05;;;;;;;1999.90;999.90;;;1.30;99.90;;;;;;5056749;28;20439;-48
2020/12/28 17:22:31;;;;;;;1999.90;999.90;;;1.30;99.90;;;;;;5057007;28;20642;-48
2020/12/28 17:24:57;;;;;;;1999.90;999.90;;;1.10;99.90;;;;;;5051186;28;20468;-47
2020/12/28 17:27:23;;;;;;;1999.90;999.90;;;1.00;99.90;;;;;;5055244;28;20189;-47
2020/12/28 17:29:49;;;;;;;1999.90;999.90;;;0.90;99.90;;;;;;5059932;28;20591;-47
2020/12/28 17:32:16;;;;;;;1999.90;999.90;;;0.80;99.90;;;;;;5056109;28;20548;-48
2020/12/28 17:34:44;;;;;;;1999.90;999.90;;;0.80;99.90;;;;;;5055879;28;21193;-53
2020/12/28 17:37:09;;;;;;;1999.90;999.90;;;0.70;99.90;;;;;;5062467;28;20952;-48
2020/12/28 17:39:35;;;;;;;1999.90;999.90;;;0.70;99.90;;;;;;5059927;28;20478;-47
2020/12/28 17:42:10;;;;;;;1999.90;999.90;;;0.60;99.90;;;;;;5055335;28;20217;-49
2020/12/28 17:44:37;;;;;;;1999.90;999.90;;;0.60;99.90;;;;;;5054257;28;20315;-47
2020/12/28 17:47:05;;;;;;;1999.90;999.90;;;0.50;99.90;;;;;;5050989;28;20471;-55
2020/12/28 17:49:30;;;;;;;1999.90;999.90;;;0.50;99.90;;;;;;5058474;28;20495;-47
2020/12/28 17:51:56;;;;;;;1999.90;999.90;;;0.50;99.90;;;;;;5052740;28;20555;-48
2020/12/28 17:54:22;;;;;;;1999.90;999.90;;;0.40;99.90;;;;;;5056370;28;20216;-46
2020/12/28 17:56:48;;;;;;;1999.90;999.90;;;0.40;99.90;;;;;;5060267;28;20443;-48
2020/12/28 17:59:14;;;;;;;1999.90;999.90;;;0.40;99.90;;;;;;5057976;28;20209;-48
2020/12/28 18:01:40;;;;;;;1999.90;999.90;;;0.30;99.90;;;;;;5054141;28;20564;-50
2020/12/28 18:04:05;;;;;;;1999.90;999.90;;;0.30;99.90;;;;;;5053928;28;20468;-51
2020/12/28 18:06:31;;;;;;;1999.90;999.90;;;0.40;99.90;;;;;;5057034;28;20219;-48
2020/12/28 18:08:57;;;;;;;1999.90;999.90;;;0.40;99.90;;;;;;5054883;28;20558;-47
2020/12/28 18:11:27;;;;;;;1999.90;999.90;;;0.30;99.90;;;;;;5058144;28;20186;-47
2020/12/28 18:13:54;;;;;;;1999.90;999.90;;;0.30;99.90;;;;;;5054837;28;20186;-49
2020/12/28 18:16:20;;;;;;;1999.90;999.90;;;0.40;99.90;;;;;;5057658;28;20524;-50
2020/12/28 18:18:47;;;;;;;1999.90;999.90;;;0.30;99.90;;;;;;5059978;28;20471;-47
2020/12/28 18:21:13;;;;;;;1999.90;999.90;;;0.30;99.90;;;;;;5065526;28;20681;-47
2020/12/28 18:23:38;;;;;;;1999.90;999.90;;;0.30;99.90;;;;;;5060659;28;20479;-48
2020/12/28 18:26:08;;;;;;;1999.90;999.90;;;0.30;99.90;;;;;;5062246;28;20209;-47
2020/12/28 18:28:35;;;;;;;1999.90;999.90;;;0.20;99.90;;;;;;5062128;28;20262;-47
2020/12/28 18:31:02;;;;;;;1999.90;999.90;;;0.30;99.90;;;;;;5055442;28;20441;-50
2020/12/28 18:33:28;;;;;;;1999.90;999.90;;;0.20;99.90;;;;;;5066885;28;20783;-48
2020/12/28 18:35:55;;;;;;;1999.90;999.90;;;0.20;99.90;;;;;;5068512;28;20504;-48
2020/12/28 18:38:20;;;;;;;1999.90;999.90;;;0.20;99.90;;;;;;5061222;28;20550;-47
2020/12/28 18:40:46;;;;;;;1999.90;999.90;;;0.20;99.90;;;;;;5070436;28;20980;-47
2020/12/28 18:43:12;;;;;;;1999.90;999.90;;;0.20;99.90;;;;;;5065896;28;20448;-49
2020/12/28 18:45:38;;;;;;;1999.90;999.90;;;0.20;99.90;;;;;;5062953;28;20724;-49
2020/12/28 18:48:03;;;;;;;1999.90;999.90;;;0.20;99.90;;;;;;5060125;28;20550;-49
2020/12/28 18:50:29;;;;;;;1999.90;999.90;;;0.20;99.90;;;;;;5058466;28;20214;-48
2020/12/28 18:52:55;;;;;;;1999.90;999.90;;;0.20;99.90;;;;;;5060478;28;20669;-47
2020/12/28 18:55:20;;;;;;;1999.90;999.90;;;0.10;99.90;;;;;;5059889;28;20187;-48
2020/12/28 18:57:46;;;;;;;1999.90;999.90;;;0.10;99.90;;;;;;5060897;28;20193;-47
2020/12/28 19:00:11;;;;;;;1999.90;999.90;;;0.10;99.90;;;;;;5057476;28;20225;-48
2020/12/28 19:02:38;;;;;;;1999.90;999.90;;;0.10;99.90;;;;;;5058604;28;20196;-48
2020/12/28 19:05:05;;;;;;;1999.90;999.90;;;0.10;99.90;;;;;;5058033;28;20218;-48
2020/12/28 19:07:30;;;;;;;1999.90;999.90;;;0.10;99.90;;;;;;5064117;28;20447;-48
2020/12/28 19:09:56;;;;;;;1999.90;999.90;;;0.20;99.90;;;;;;5058305;28;20470;-48
2020/12/28 19:12:22;;;;;;;1999.90;999.90;;;0.10;99.90;;;;;;5056515;28;20273;-48
2020/12/28 19:14:47;;;;;;;1999.90;999.90;;;0.10;99.90;;;;;;5058828;28;20479;-48
2020/12/28 19:17:13;;;;;;;1999.90;999.90;;;0.10;99.90;;;;;;5062834;28;20216;-48
2020/12/28 19:19:39;;;;;;;1999.90;999.90;;;0.10;99.90;;;;;;5060247;28;20241;-48
2020/12/28 19:22:06;;;;;;;1999.90;999.90;;;0.00;99.90;;;;;;5058982;28;20196;-48
2020/12/28 19:24:33;;;;;;;1999.90;999.90;;;0.00;99.90;;;;;;5052095;28;20205;-48
2020/12/28 19:27:00;;;;;;;1999.90;999.90;;;0.00;99.90;;;;;;5058756;28;20503;-48
2020/12/28 19:29:29;;;;;;;1999.90;999.90;;;-0.10;99.90;;;;;;5058000;28;20485;-50
2020/12/28 19:31:57;;;;;;;1999.90;999.90;;;-0.10;99.90;;;;;;5056982;28;21048;-47
2020/12/28 19:34:23;;;;;;;1999.90;999.90;;;-0.10;99.90;;;;;;5053957;28;20826;-48
2020/12/28 19:36:51;;;;;;;1999.90;999.90;;;-0.10;99.90;;;;;;5061805;28;20443;-48
2020/12/28 19:39:17;;;;;;;1999.90;999.90;;;-0.20;99.90;;;;;;5058865;28;20307;-48
2020/12/28 19:41:45;;;;;;;1999.90;999.90;;;-0.20;99.90;;;;;;5062114;28;20452;-49
2020/12/28 19:44:12;;;;;;;1999.90;999.90;;;-0.20;99.90;;;;;;5056451;28;21174;-48
2020/12/28 19:46:38;;;;;;;1999.90;999.90;;;-0.20;99.90;;;;;;5057456;28;20479;-48
2020/12/28 19:49:06;;;;;;;1999.90;999.90;;;-0.20;99.90;;;;;;5058194;28;20539;-48
2020/12/28 19:51:32;;;;;;;1999.90;999.90;;;-0.20;99.90;;;;;;5053770;28;21257;-48
2020/12/28 19:53:59;;;;;;;1999.90;999.90;;;-0.30;99.90;;;;;;5055368;28;20469;-48
2020/12/28 19:56:25;;;;;;;1999.90;999.90;;;-0.40;99.90;;;;;;5043976;28;20531;-49
2020/12/28 19:58:53;;;;;;;1999.90;999.90;;;-0.50;99.90;;;;;;5061800;28;20547;-48
2020/12/28 20:01:19;;;;;;;1999.90;999.90;;;-0.60;99.90;;;;;;5060490;28;20186;-48
2020/12/28 20:03:45;;;;;;;1999.90;999.90;;;-0.70;99.90;;;;;;5060546;28;20639;-48
2020/12/28 20:06:11;;;;;;;1999.90;999.90;;;-0.70;99.90;;;;;;5056104;28;20471;-48
2020/12/28 20:08:37;;;;;;;1999.90;999.90;;;-0.80;99.90;;;;;;5040853;28;20229;-49
2020/12/28 20:11:03;;;;;;;1999.90;999.90;;;-0.80;99.90;;;;;;5062086;28;20186;-48
2020/12/28 20:13:29;;;;;;;1999.90;999.90;;;-0.80;99.90;;;;;;5058241;28;20439;-48
2020/12/28 20:15:55;;;;;;;1999.90;999.90;;;-0.90;99.90;;;;;;5059379;28;20448;-48
2020/12/28 20:18:21;;;;;;;1999.90;999.90;;;-0.90;99.90;;;;;;5057163;28;20204;-48
2020/12/28 20:20:47;;;;;;;1999.90;999.90;;;-0.90;99.90;;;;;;5055068;28;20182;-48
2020/12/28 20:23:13;;;;;;;1999.90;999.90;;;-0.90;99.90;;;;;;5056537;28;20979;-48
2020/12/28 20:25:41;;;;;;;1999.90;999.90;;;-0.80;99.90;;;;;;5057444;28;20532;-48
2020/12/28 20:28:09;;;;;;;1999.90;999.90;;;-0.80;99.90;;;;;;5056596;28;20202;-48
2020/12/28 20:30:34;;;;;;;1999.90;999.90;;;-0.70;99.90;;;;;;5055812;28;20440;-48
2020/12/28 20:33:00;;;;;;;1999.90;999.90;;;-0.50;99.90;;;;;;5057652;28;20448;-48
2020/12/28 20:35:25;;;;;;;1999.90;999.90;;;-0.50;99.90;;;;;;5057879;28;20194;-48
2020/12/28 20:37:52;;;;;;;1999.90;999.90;;;-0.40;99.90;;;;;;5055842;28;20689;-48
2020/12/28 20:40:39;;;;;;;1999.90;999.90;;;-0.30;99.90;;;;;;5054766;28;20170;-48
2020/12/28 20:43:13;;;;;;;1999.90;999.90;;;-0.30;99.90;;;;;;5055702;28;20514;-48
2020/12/28 20:45:40;;;;;;;1999.90;999.90;;;-0.30;99.90;;;;;;5058410;28;20475;-49
2020/12/28 20:48:07;;;;;;;1999.90;999.90;;;-0.20;99.90;;;;;;5059168;28;20999;-49
2020/12/28 20:50:33;;;;;;;1999.90;999.90;;;-0.20;99.90;;;;;;5058193;28;20467;-49
2020/12/28 20:52:59;;;;;;;1999.90;999.90;;;-0.20;99.90;;;;;;5059741;28;20468;-49
2020/12/28 20:55:25;;;;;;;1999.90;999.90;;;-0.20;99.90;;;;;;5060489;28;21003;-49
2020/12/28 20:57:50;;;;;;;1999.90;999.90;;;-0.20;99.90;;;;;;5061574;28;20266;-48
2020/12/28 21:00:17;;;;;;;1999.90;999.90;;;-0.20;99.90;;;;;;5061809;28;20194;-48
2020/12/28 21:02:43;;;;;;;1999.90;999.90;;;-0.20;99.90;;;;;;5061063;28;20252;-49
2020/12/28 21:05:09;;;;;;;1999.90;999.90;;;-0.20;99.90;;;;;;5059944;28;20475;-49
2020/12/28 21:07:35;;;;;;;1999.90;999.90;;;-0.20;99.90;;;;;;5058658;28;20818;-49
2020/12/28 21:10:01;;;;;;;1999.90;999.90;;;-0.20;99.90;;;;;;5059391;28;20213;-48
2020/12/28 21:12:26;;;;;;;1999.90;999.90;;;-0.30;99.90;;;;;;5059326;28;20178;-48
2020/12/28 21:14:52;;;;;;;1999.90;999.90;;;-0.30;99.90;;;;;;5064949;28;20189;-48
2020/12/28 21:17:17;;;;;;;1999.90;999.90;;;-0.30;99.90;;;;;;5059690;28;20183;-49
2020/12/28 21:19:43;;;;;;;1999.90;999.90;;;-0.20;99.90;;;;;;5061606;28;20206;-49
2020/12/28 21:22:09;;;;;;;1999.90;999.90;;;-0.20;99.90;;;;;;5062170;28;20821;-48
2020/12/28 21:24:35;;;;;;;1999.90;999.90;;;-0.20;99.90;;;;;;5059313;28;20209;-48
2020/12/28 21:27:01;;;;;;;1999.90;999.90;;;-0.10;99.90;;;;;;5065727;28;20431;-48
2020/12/28 21:29:27;;;;;;;1999.90;999.90;;;-0.10;99.90;;;;;;5061632;28;20280;-49
2020/12/28 21:31:54;;;;;;;1999.90;999.90;;;0.00;99.90;;;;;;5061260;28;20235;-49
2020/12/28 21:34:21;;;;;;;1999.90;999.90;;;0.00;99.90;;;;;;5058535;28;20421;-48
2020/12/28 21:36:54;;;;;;;1999.90;999.90;;;0.10;99.90;;;;;;5065119;28;20416;-48
2020/12/28 21:39:20;;;;;;;1999.90;999.90;;;0.10;99.90;;;;;;5061883;28;20439;-52
2020/12/28 21:41:47;;;;;;;1999.90;999.90;;;0.00;99.90;;;;;;5060196;28;20440;-48
2020/12/28 21:44:13;;;;;;;1999.90;999.90;;;0.10;99.90;;;;;;5069490;28;20471;-49
2020/12/28 21:46:38;;;;;;;1999.90;999.90;;;0.10;99.90;;;;;;5070242;28;20439;-49
2020/12/28 21:49:04;;;;;;;1999.90;999.90;;;0.10;99.90;;;;;;5067124;28;20210;-49
2020/12/28 21:51:30;;;;;;;1999.90;999.90;;;0.10;99.90;;;;;;5061770;28;20181;-49
2020/12/28 21:53:56;;;;;;;1999.90;999.90;;;0.10;99.90;;;;;;5058107;28;20523;-48
2020/12/28 21:56:22;;;;;;;1999.90;999.90;;;0.10;99.90;;;;;;5056866;28;20531;-49
2020/12/28 21:58:47;;;;;;;1999.90;999.90;;;0.10;99.90;;;;;;5064077;28;20300;-48
2020/12/28 22:01:15;;;;;;;1999.90;999.90;;;0.10;99.90;;;;;;5058456;28;20816;-48
2020/12/28 22:03:41;;;;;;;1999.90;999.90;;;0.10;99.90;;;;;;5059719;28;20424;-49
2020/12/28 22:06:07;;;;;;;1999.90;999.90;;;0.10;99.90;;;;;;5060038;28;20494;-48
2020/12/28 22:08:33;;;;;;;1999.90;999.90;;;0.10;99.90;;;;;;5063510;28;21000;-48
2020/12/28 22:11:00;;;;;;;1999.90;999.90;;;0.10;99.90;;;;;;5068977;28;20469;-48
2020/12/28 22:13:29;;;;;;;1999.90;999.90;;;0.10;99.90;;;;;;5074012;28;20554;-48
2020/12/28 22:15:54;;;;;;;1999.90;999.90;;;0.20;99.90;;;;;;5073686;28;20473;-49
2020/12/28 22:18:20;;;;;;;1999.90;999.90;;;0.20;99.90;;;;;;5073866;28;20526;-48
2020/12/28 22:20:46;;;;;;;1999.90;999.90;;;0.20;99.90;;;;;;5073768;28;20261;-48
2020/12/28 22:23:11;;;;;;;1999.90;999.90;;;0.20;99.90;;;;;;5072488;28;20960;-48
2020/12/28 22:25:37;;;;;;;1999.90;999.90;;;0.20;99.90;;;;;;5070066;28;20202;-48
2020/12/28 22:28:02;;;;;;;1999.90;999.90;;;0.20;99.90;;;;;;5073640;28;20666;-48
2020/12/28 22:30:28;;;;;;;1999.90;999.90;;;0.30;99.90;;;;;;5069322;28;20197;-48
2020/12/28 22:32:54;;;;;;;1999.90;999.90;;;0.30;99.90;;;;;;5061211;28;20201;-48
2020/12/28 22:35:19;;;;;;;1999.90;999.90;;;0.30;99.90;;;;;;5069109;28;20228;-48
